Terminal Aerodrome Forecast
Issued by NWS Cleveland, OH

Home | Current Version | Previous Version | Text Only | Print | Product List | Glossary Off
Versions: 1 2 3 4 5 6 7 8 9 10 11 12 13 14

000
FTUS41 KCLE 261135
TAFYNG
TAF
KYNG 261135Z 2612/2712 24004KT P6SM VCSH SCT020 BKN040
      TEMPO 2612/2615 BKN020 OVC040
     FM261500 30003KT P6SM VCSH BKN030 OVC250
     FM261900 35006KT P6SM BKN035 BKN250
     FM270000 01003KT P6SM SKC
     FM271000 VRB03KT 4SM BR SKC=

USA.gov is the U.S. government's official web portal to all federal, state and local government web resources and services.